20.5F
Current conditions from King Hill
Updated every 5 minutes
 
  Sunday January 19, 2020

Observations for Westford

Westford

44° 37' 38"N, 73° 02' 29"W, Elevation 850 ft.
Eastern Time

Hourly observations for the last 72 hours

Date Time Temperature (°F) Humi-
dity

(%)
Wind
(mph)
Pressure Rain (in)
Air Dew 6 Hour 1 Hr 3 Hr 6 Hr Day
Alt
(in)
Sea
Level

(mb)
Max Min
19 02:00 20.3 18.3 92 SE 4 G 11 29.56 1000.9 0.00
19 01:00 19.4 17.2 19.4 10.4 91 SSE 5 G 14 29.58 1001.7 0.00
19 00:00 18.3 15.6 89 SE 5 G 14 29.64 1003.7 0.00
18 23:00 17.8 14.6 87 SE 5 G 13 29.69 1005.4 0.00
18 22:00 16.5 13.6 88 ESE 5 G 13 29.74 1007.0 0.00
18 21:00 14.3 11.9 90 SSE 2 G 11 29.81 1009.4 0.00
18 20:00 13.9 11.0 88 SSE 6 G 12 29.86 1011.2 0.00
18 19:00 10.4 8.1 10.4 6.9 90 SSW 0 G 3 29.93 1013.6 0.00
18 18:00 8.9 6.3 89 Calm 29.97 1014.9 0.00
18 17:00 7.8 4.7 87 ENE 1 G 3 30.05 1017.7 0.00
18 16:00 8.8 4.2 81 ENE 0 G 3 30.16 1021.3 0.00
18 15:00 8.4 3.0 78 Calm 30.21 1023.1 0.00
18 14:00 8.4 2.4 76 SE 0 G 4 30.27 1025.2 0.00
18 13:00 7.0 1.6 7.0 -2.7 78 NE 0 G 3 30.33 1027.0 0.00
18 12:00 5.2 -0.2 78 NNE 1 G 4 30.39 1029.2 0.00
18 11:00 3.1 -0.9 83 NE 0 G 3 30.45 1031.2 0.00
18 10:00 2.3 -1.7 83 Calm 30.52 1033.5 0.00
18 09:00 0.4 -3.0 85 ENE 0 G 3 30.54 1034.3 0.00
18 08:00 -2.6 -6.0 85 Calm 30.58 1035.6 0.00
18 07:00 -2.2 -5.4 -1.9 -6.7 86 Calm 30.59 1036.1 0.00
18 06:00 -2.8 -5.9 86 Calm 30.63 1037.3 0.00
18 05:00 -4.4 -7.8 85 Calm 30.66 1038.3 0.00
18 04:00 -4.7 -7.8 86 Calm 30.69 1039.4 0.00
18 03:00 -5.9 -9.2 85 Calm 30.70 1039.7 0.00
18 02:00 -6.5 -9.8 85 Calm 30.71 1040.0 0.00
18 01:00 -4.3 -8.4 -3.7 -10.8 82 Calm 30.72 1040.3 0.00
18 00:00 -4.2 -8.1 83 Calm 30.74 1041.1 0.00
17 23:00 -6.0 -9.1 86 N 0 G 4 30.76 1041.6 0.00
17 22:00 -10.5 -13.8 85 Calm 30.74 1040.9 0.00
17 21:00 -9.2 -13.0 83 Calm 30.74 1040.9 0.00
17 20:00 -7.9 -11.2 85 Calm 30.73 1040.5 0.00
17 19:00 -7.1 -10.7 4.6 -7.1 84 Calm 30.72 1040.3 0.00
17 18:00 -3.0 -6.6 84 NNW 0 G 2 30.73 1040.6 0.00
17 17:00 -1.0 -5.4 81 NNW 0 G 4 30.73 1040.7 0.00
17 16:00 2.0 -3.5 77 NW 0 G 8 30.72 1040.3 0.00
17 15:00 3.5 -3.2 73 N 3 G 8 30.71 1039.9 0.00
17 14:00 3.7 -2.5 75 NNW 4 G 8 30.69 1039.4 0.00
17 13:00 2.7 -3.7 3.6 -3.0 74 W 6 G 12 30.70 1039.7 0.00
17 12:00 1.7 -3.8 77 W 4 G 9 30.71 1040.1 0.00
17 11:00 0.4 -4.8 78 WNW 4 G 8 30.72 1040.4 0.00
17 10:00 -2.4 -6.8 81 WNW 5 G 15 30.73 1040.6 0.00
17 09:00 -2.9 -7.0 82 W 5 G 12 30.69 1039.3 0.00
17 08:00 -2.7 -6.6 83 W 6 G 14 30.68 1038.8 0.00
17 07:00 -2.0 -5.6 8.6 -2.0 84 W 7 G 13 30.63 1037.4 0.00
17 06:00 -0.3 -3.7 85 NW 2 G 15 30.59 1035.8 0.00
17 05:00 1.5 -2.2 84 WNW 6 G 17 30.52 1033.7 0.00
17 04:00 3.4 -0.3 84 WNW 10 G 22 30.47 1031.8 0.00
17 03:00 5.2 1.7 85 WNW 10 G 19 30.43 1030.4 0.00
17 02:00 6.9 3.1 84 WNW 8 G 24 30.38 1028.8 0.00
17 01:00 8.6 5.0 18.6 8.6 85 WNW 9 G 17 30.33 1027.0 0.00
17 00:00 9.9 5.8 83 NW 6 G 14 30.29 1025.6 0.00
16 23:00 11.4 7.5 84 WNW 3 G 20 30.25 1024.5 0.00
16 22:00 13.3 9.6 85 WNW 5 G 21 30.21 1023.1 0.00
16 21:00 15.1 11.7 86 W 7 G 16 30.17 1021.5 0.00
16 20:00 17.0 14.3 89 W 8 G 20 30.11 1019.8 0.00
16 19:00 18.6 15.6 27.0 18.6 88 WNW 9 G 22 30.08 1018.6 0.00
16 18:00 20.8 18.6 91 WNW 5 G 19 30.03 1017.0 0.00
16 17:00 22.6 19.8 89 WNW 9 G 26 29.98 1015.3 0.00
16 16:00 25.6 24.1 94 W 4 G 13 29.92 1013.4 0.00
16 15:00 25.9 23.4 90 WNW 2 G 11 29.90 1012.6 0.00
16 14:00 26.4 24.1 91 WNW 2 G 10 29.87 1011.5 0.00
16 13:00 26.9 25.1 28.7 26.5 93 WNW 2 G 12 29.86 1011.1 0.00
16 12:00 27.3 25.8 94 WNW 4 G 15 29.85 1010.9 0.00
16 11:00 28.1 26.6 94 W 2 G 9 29.84 1010.5 0.00
16 10:00 27.8 26.3 94 WNW 1 G 5 29.82 1009.8 0.00
16 09:00 28.1 27.1 96 NNW 1 G 4 29.79 1008.9 0.00
16 08:00 28.0 27.0 96 NNW 1 G 5 29.79 1008.9 0.00
16 07:00 28.6 27.6 28.7 28.1 96 N 1 G 3 29.79 1009.0 0.00
16 06:00 28.6 27.6 96 N 0 G 4 29.82 1009.7 0.00
16 05:00 28.5 27.5 96 N 0 G 2 29.84 1010.4 0.00
16 04:00 28.3 27.3 96 N 0 G 3 29.85 1011.0 0.00
16 03:00 28.1 27.1 96 N 0 G 2 29.89 1012.2 0.00

Data generated by WxSolution Version 1.9.1.7, Build 2018.11.24.


 
 
Current Radar Loop:

Copyright © WestfordWeather.net 2007-2020. All rights reserved.